sensor_id;sensor_type;location;lat;lon;timestamp;temperature;humidity
10143;DHT22;5112;54.088;13.446;2023-02-10T00:08:34;3.10;99.90
10143;DHT22;5112;54.088;13.446;2023-02-10T00:18:36;3.10;99.90
10143;DHT22;5112;54.088;13.446;2023-02-10T00:28:39;3.00;99.90
10143;DHT22;5112;54.088;13.446;2023-02-10T00:38:41;3.00;99.90
10143;DHT22;5112;54.088;13.446;2023-02-10T00:48:45;2.90;99.90
10143;DHT22;5112;54.088;13.446;2023-02-10T00:58:46;2.70;99.90
10143;DHT22;5112;54.088;13.446;2023-02-10T01:08:49;2.70;99.90
10143;DHT22;5112;54.088;13.446;2023-02-10T01:18:51;2.80;99.90
10143;DHT22;5112;54.088;13.446;2023-02-10T01:28:55;2.70;99.90
10143;DHT22;5112;54.088;13.446;2023-02-10T01:38:57;2.70;99.90
10143;DHT22;5112;54.088;13.446;2023-02-10T01:49:03;2.80;99.90
10143;DHT22;5112;54.088;13.446;2023-02-10T01:59:06;2.80;99.90
10143;DHT22;5112;54.088;13.446;2023-02-10T02:09:10;2.90;99.90
10143;DHT22;5112;54.088;13.446;2023-02-10T02:19:28;2.80;99.90
10143;DHT22;5112;54.088;13.446;2023-02-10T02:29:56;2.90;99.90
10143;DHT22;5112;54.088;13.446;2023-02-10T02:40:05;2.80;99.90
10143;DHT22;5112;54.088;13.446;2023-02-10T02:50:17;2.90;99.90
10143;DHT22;5112;54.088;13.446;2023-02-10T03:00:26;3.00;99.90
10143;DHT22;5112;54.088;13.446;2023-02-10T03:10:29;3.20;99.90
10143;DHT22;5112;54.088;13.446;2023-02-10T03:20:32;3.30;99.90
10143;DHT22;5112;54.088;13.446;2023-02-10T03:30:33;3.10;99.90
10143;DHT22;5112;54.088;13.446;2023-02-10T03:40:36;3.20;99.90
10143;DHT22;5112;54.088;13.446;2023-02-10T03:50:38;3.40;99.90
10143;DHT22;5112;54.088;13.446;2023-02-10T04:00:42;3.40;99.90
10143;DHT22;5112;54.088;13.446;2023-02-10T04:10:43;3.40;99.90
10143;DHT22;5112;54.088;13.446;2023-02-10T04:20:46;3.70;99.90
10143;DHT22;5112;54.088;13.446;2023-02-10T04:30:50;3.50;99.90
10143;DHT22;5112;54.088;13.446;2023-02-10T04:40:53;3.60;99.90
10143;DHT22;5112;54.088;13.446;2023-02-10T04:50:55;3.50;99.90
10143;DHT22;5112;54.088;13.446;2023-02-10T05:00:58;3.60;99.90
10143;DHT22;5112;54.088;13.446;2023-02-10T05:11:00;3.70;99.90
10143;DHT22;5112;54.088;13.446;2023-02-10T05:21:03;3.70;99.90
10143;DHT22;5112;54.088;13.446;2023-02-10T05:31:05;3.70;99.90
10143;DHT22;5112;54.088;13.446;2023-02-10T05:41:09;3.80;99.90
10143;DHT22;5112;54.088;13.446;2023-02-10T05:51:11;3.90;99.90
10143;DHT22;5112;54.088;13.446;2023-02-10T06:01:14;3.80;99.90
10143;DHT22;5112;54.088;13.446;2023-02-10T06:11:16;3.90;99.90
10143;DHT22;5112;54.088;13.446;2023-02-10T06:21:19;4.00;99.90
10143;DHT22;5112;54.088;13.446;2023-02-10T06:31:22;4.00;99.90
10143;DHT22;5112;54.088;13.446;2023-02-10T06:41:27;4.00;99.90
10143;DHT22;5112;54.088;13.446;2023-02-10T06:51:28;3.90;99.90
10143;DHT22;5112;54.088;13.446;2023-02-10T07:01:31;4.10;99.90
10143;DHT22;5112;54.088;13.446;2023-02-10T07:11:33;4.10;99.90
10143;DHT22;5112;54.088;13.446;2023-02-10T07:21:36;4.00;99.90
10143;DHT22;5112;54.088;13.446;2023-02-10T07:31:38;4.00;99.90
10143;DHT22;5112;54.088;13.446;2023-02-10T07:41:41;4.00;99.90
10143;DHT22;5112;54.088;13.446;2023-02-10T07:51:43;4.00;99.90
10143;DHT22;5112;54.088;13.446;2023-02-10T08:01:46;4.10;99.90
10143;DHT22;5112;54.088;13.446;2023-02-10T08:11:48;4.30;99.90
10143;DHT22;5112;54.088;13.446;2023-02-10T08:21:51;4.40;99.90
10143;DHT22;5112;54.088;13.446;2023-02-10T08:31:53;4.20;99.90
10143;DHT22;5112;54.088;13.446;2023-02-10T08:41:56;4.20;99.90
10143;DHT22;5112;54.088;13.446;2023-02-10T08:51:57;4.30;99.90
10143;DHT22;5112;54.088;13.446;2023-02-10T09:02:02;4.40;99.90
10143;DHT22;5112;54.088;13.446;2023-02-10T09:12:03;4.30;99.90
10143;DHT22;5112;54.088;13.446;2023-02-10T09:22:06;4.30;99.90
10143;DHT22;5112;54.088;13.446;2023-02-10T09:32:08;4.30;99.90
10143;DHT22;5112;54.088;13.446;2023-02-10T09:42:20;4.40;99.90
10143;DHT22;5112;54.088;13.446;2023-02-10T09:52:36;4.60;99.90
10143;DHT22;5112;54.088;13.446;2023-02-10T10:02:46;4.70;99.90
10143;DHT22;5112;54.088;13.446;2023-02-10T10:12:50;4.70;99.90
10143;DHT22;5112;54.088;13.446;2023-02-10T10:23:00;4.90;99.90
10143;DHT22;5112;54.088;13.446;2023-02-10T10:33:11;5.00;99.90
10143;DHT22;5112;54.088;13.446;2023-02-10T10:43:21;5.20;99.90
10143;DHT22;5112;54.088;13.446;2023-02-10T10:53:39;5.30;99.90
10143;DHT22;5112;54.088;13.446;2023-02-10T11:03:42;5.40;99.90
10143;DHT22;5112;54.088;13.446;2023-02-10T11:13:50;5.30;99.90
10143;DHT22;5112;54.088;13.446;2023-02-10T11:23:55;5.50;99.90
10143;DHT22;5112;54.088;13.446;2023-02-10T11:34:00;5.50;99.90
10143;DHT22;5112;54.088;13.446;2023-02-10T11:44:14;5.70;99.90
10143;DHT22;5112;54.088;13.446;2023-02-10T11:54:22;6.10;99.90
10143;DHT22;5112;54.088;13.446;2023-02-10T12:04:57;6.50;99.90
10143;DHT22;5112;54.088;13.446;2023-02-10T12:15:07;6.60;99.90
10143;DHT22;5112;54.088;13.446;2023-02-10T12:25:19;6.60;99.90
10143;DHT22;5112;54.088;13.446;2023-02-10T12:35:29;6.60;99.90
10143;DHT22;5112;54.088;13.446;2023-02-10T12:45:41;7.20;99.90
10143;DHT22;5112;54.088;13.446;2023-02-10T12:55:50;7.80;99.90
10143;DHT22;5112;54.088;13.446;2023-02-10T13:05:59;7.70;99.90
10143;DHT22;5112;54.088;13.446;2023-02-10T13:16:06;7.60;99.90
10143;DHT22;5112;54.088;13.446;2023-02-10T13:26:26;7.90;99.90
10143;DHT22;5112;54.088;13.446;2023-02-10T13:36:34;8.00;99.90
10143;DHT22;5112;54.088;13.446;2023-02-10T13:46:38;7.50;99.90
10143;DHT22;5112;54.088;13.446;2023-02-10T13:56:40;7.60;99.90
10143;DHT22;5112;54.088;13.446;2023-02-10T14:06:45;7.40;99.90
10143;DHT22;5112;54.088;13.446;2023-02-10T14:16:49;7.20;99.90
10143;DHT22;5112;54.088;13.446;2023-02-10T14:26:56;6.60;99.90
10143;DHT22;5112;54.088;13.446;2023-02-10T14:37:00;6.50;99.90
10143;DHT22;5112;54.088;13.446;2023-02-10T14:47:05;6.30;99.90
10143;DHT22;5112;54.088;13.446;2023-02-10T14:57:10;6.40;99.90
10143;DHT22;5112;54.088;13.446;2023-02-10T15:07:16;6.20;99.90
10143;DHT22;5112;54.088;13.446;2023-02-10T15:17:21;5.90;99.90
10143;DHT22;5112;54.088;13.446;2023-02-10T15:27:25;5.90;99.90
10143;DHT22;5112;54.088;13.446;2023-02-10T15:37:27;5.80;99.90
10143;DHT22;5112;54.088;13.446;2023-02-10T15:47:44;5.80;99.90
10143;DHT22;5112;54.088;13.446;2023-02-10T15:57:46;5.80;99.90
10143;DHT22;5112;54.088;13.446;2023-02-10T16:07:49;5.80;99.90
10143;DHT22;5112;54.088;13.446;2023-02-10T16:17:54;5.60;99.90
10143;DHT22;5112;54.088;13.446;2023-02-10T16:27:57;5.50;99.90
10143;DHT22;5112;54.088;13.446;2023-02-10T16:37:59;5.40;99.90
10143;DHT22;5112;54.088;13.446;2023-02-10T16:48:02;5.30;99.90
10143;DHT22;5112;54.088;13.446;2023-02-10T16:58:05;5.20;99.90
10143;DHT22;5112;54.088;13.446;2023-02-10T17:08:09;5.30;99.90
10143;DHT22;5112;54.088;13.446;2023-02-10T17:18:12;5.20;99.90
10143;DHT22;5112;54.088;13.446;2023-02-10T17:28:15;4.90;99.90
10143;DHT22;5112;54.088;13.446;2023-02-10T17:38:17;4.90;99.90
10143;DHT22;5112;54.088;13.446;2023-02-10T17:48:34;5.10;99.90
10143;DHT22;5112;54.088;13.446;2023-02-10T17:58:36;5.00;99.90
10143;DHT22;5112;54.088;13.446;2023-02-10T18:08:39;4.90;99.90
10143;DHT22;5112;54.088;13.446;2023-02-10T18:18:41;5.00;99.90
10143;DHT22;5112;54.088;13.446;2023-02-10T18:28:44;5.10;99.90
10143;DHT22;5112;54.088;13.446;2023-02-10T18:38:45;5.10;99.90
10143;DHT22;5112;54.088;13.446;2023-02-10T18:48:50;5.20;99.90
10143;DHT22;5112;54.088;13.446;2023-02-10T18:58:52;5.40;99.90
10143;DHT22;5112;54.088;13.446;2023-02-10T19:08:55;5.40;99.90
10143;DHT22;5112;54.088;13.446;2023-02-10T19:18:58;5.40;99.90
10143;DHT22;5112;54.088;13.446;2023-02-10T19:29:02;5.60;99.90
10143;DHT22;5112;54.088;13.446;2023-02-10T19:39:04;5.60;99.90
10143;DHT22;5112;54.088;13.446;2023-02-10T19:49:07;5.50;99.90
10143;DHT22;5112;54.088;13.446;2023-02-10T19:59:09;5.40;99.90
10143;DHT22;5112;54.088;13.446;2023-02-10T20:09:13;5.50;99.90
10143;DHT22;5112;54.088;13.446;2023-02-10T20:19:15;5.40;99.90
10143;DHT22;5112;54.088;13.446;2023-02-10T20:29:20;5.40;99.90
10143;DHT22;5112;54.088;13.446;2023-02-10T20:39:21;5.50;99.90
10143;DHT22;5112;54.088;13.446;2023-02-10T20:49:24;5.40;99.90
10143;DHT22;5112;54.088;13.446;2023-02-10T20:59:27;5.50;99.90
10143;DHT22;5112;54.088;13.446;2023-02-10T21:09:32;5.50;99.90
10143;DHT22;5112;54.088;13.446;2023-02-10T21:19:34;5.40;99.90
10143;DHT22;5112;54.088;13.446;2023-02-10T21:29:37;5.40;99.90
10143;DHT22;5112;54.088;13.446;2023-02-10T21:39:39;5.40;99.90
10143;DHT22;5112;54.088;13.446;2023-02-10T21:49:42;5.30;99.90
10143;DHT22;5112;54.088;13.446;2023-02-10T21:59:44;5.30;99.90
10143;DHT22;5112;54.088;13.446;2023-02-10T22:09:47;5.30;99.90
10143;DHT22;5112;54.088;13.446;2023-02-10T22:19:49;5.40;99.90
10143;DHT22;5112;54.088;13.446;2023-02-10T22:29:52;5.50;99.90
10143;DHT22;5112;54.088;13.446;2023-02-10T22:39:54;5.40;99.90
10143;DHT22;5112;54.088;13.446;2023-02-10T22:49:57;5.40;99.90
10143;DHT22;5112;54.088;13.446;2023-02-10T23:00:04;5.50;99.90
10143;DHT22;5112;54.088;13.446;2023-02-10T23:10:09;5.40;99.90
10143;DHT22;5112;54.088;13.446;2023-02-10T23:20:11;5.30;99.90
10143;DHT22;5112;54.088;13.446;2023-02-10T23:30:14;5.40;99.90
10143;DHT22;5112;54.088;13.446;2023-02-10T23:40:16;5.40;99.90
10143;DHT22;5112;54.088;13.446;2023-02-10T23:50:19;5.40;99.90
